createdAt,value
2019-01-26T00:01:56.974Z,19.00
2019-01-26T00:04:26.356Z,16.23
2019-01-26T00:06:55.841Z,17.10
2019-01-26T00:09:25.201Z,16.10
2019-01-26T00:11:54.661Z,16.90
2019-01-26T00:14:24.022Z,12.90
2019-01-26T00:16:53.495Z,15.27
2019-01-26T00:19:22.876Z,15.73
2019-01-26T00:21:52.274Z,19.20
2019-01-26T00:24:21.662Z,17.50
2019-01-26T00:26:51.034Z,15.90
2019-01-26T00:29:20.444Z,17.33
2019-01-26T00:31:49.869Z,17.93
2019-01-26T00:34:19.237Z,16.90
2019-01-26T00:36:48.652Z,15.13
2019-01-26T00:39:17.992Z,15.03
2019-01-26T00:41:47.363Z,16.37
2019-01-26T00:44:16.752Z,15.20
2019-01-26T00:46:46.215Z,18.97
2019-01-26T00:49:15.541Z,18.93
2019-01-26T00:51:44.903Z,18.53
2019-01-26T00:54:14.378Z,20.57
2019-01-26T00:56:43.743Z,20.30
2019-01-26T00:59:13.153Z,21.20
2019-01-26T01:01:42.771Z,19.40
2019-01-26T01:04:12.121Z,23.07
2019-01-26T01:06:41.542Z,25.60
2019-01-26T01:09:16.899Z,26.63
2019-01-26T01:11:46.389Z,22.97
2019-01-26T01:14:15.786Z,25.33
2019-01-26T01:16:47.001Z,24.50
2019-01-26T01:19:20.292Z,25.73
2019-01-26T01:21:50.008Z,23.30
2019-01-26T01:24:19.504Z,26.33
2019-01-26T01:26:48.892Z,25.07
2019-01-26T01:29:18.363Z,28.00
2019-01-26T01:31:47.739Z,27.90
2019-01-26T01:34:18.096Z,27.50
2019-01-26T01:36:47.580Z,22.93
2019-01-26T01:39:17.011Z,28.47
2019-01-26T01:41:46.467Z,28.27
2019-01-26T01:44:18.967Z,22.90
2019-01-26T01:46:48.432Z,24.30
2019-01-26T01:49:17.880Z,31.73
2019-01-26T01:51:47.307Z,28.27
2019-01-26T01:54:16.749Z,31.40
2019-01-26T01:56:48.544Z,29.87
2019-01-26T01:59:19.686Z,33.37
2019-01-26T02:01:49.076Z,31.77
2019-01-26T02:04:18.391Z,34.70
2019-01-26T02:06:48.064Z,30.07
2019-01-26T02:09:17.504Z,36.20
2019-01-26T02:11:47.149Z,37.23
2019-01-26T02:14:16.499Z,33.33
2019-01-26T02:16:50.040Z,37.30
2019-01-26T02:19:17.026Z,36.80
2019-01-26T02:21:46.378Z,35.53
2019-01-26T02:24:15.681Z,42.70
2019-01-26T02:26:45.105Z,37.10
2019-01-26T02:29:14.339Z,41.57
2019-01-26T02:31:43.712Z,34.17
2019-01-26T02:34:13.072Z,41.67
2019-01-26T02:36:42.491Z,40.63
2019-01-26T02:39:11.965Z,39.67
2019-01-26T02:41:41.264Z,42.17
2019-01-26T02:44:10.623Z,42.00
2019-01-26T02:46:40.033Z,37.00
2019-01-26T02:49:11.572Z,42.30
2019-01-26T02:51:41.065Z,43.13
2019-01-26T02:54:11.264Z,41.07
2019-01-26T02:56:40.654Z,43.10
2019-01-26T02:59:10.061Z,42.60
2019-01-26T03:01:39.452Z,37.27
2019-01-26T03:04:08.925Z,36.53
2019-01-26T03:06:38.348Z,42.50
2019-01-26T03:09:09.603Z,38.93
2019-01-26T03:11:38.974Z,44.20
2019-01-26T03:14:08.308Z,41.63
2019-01-26T03:16:37.546Z,42.20
2019-01-26T03:19:06.963Z,39.60
2019-01-26T03:21:36.301Z,46.07
2019-01-26T03:24:05.927Z,34.17
2019-01-26T03:26:35.334Z,43.47
2019-01-26T03:29:04.754Z,47.20
2019-01-26T03:31:34.265Z,49.73
2019-01-26T03:34:03.740Z,46.77
2019-01-26T03:36:33.118Z,47.37
2019-01-26T03:39:02.403Z,44.50
2019-01-26T03:41:31.648Z,36.80
2019-01-26T03:44:01.033Z,42.37
2019-01-26T03:46:30.483Z,42.67
2019-01-26T03:48:59.921Z,46.00
2019-01-26T03:51:29.169Z,40.43
2019-01-26T03:53:58.615Z,37.40
2019-01-26T03:56:29.897Z,42.90
2019-01-26T03:58:59.376Z,35.67
2019-01-26T04:01:28.615Z,38.70
2019-01-26T04:03:58.027Z,37.37
2019-01-26T04:06:27.353Z,39.23
2019-01-26T04:08:56.862Z,32.50
2019-01-26T04:11:26.123Z,33.33
2019-01-26T04:13:55.414Z,28.33
2019-01-26T04:16:24.743Z,36.37
2019-01-26T04:18:54.010Z,34.90
2019-01-26T04:21:23.462Z,37.57
2019-01-26T04:23:52.780Z,38.37
2019-01-26T04:26:22.151Z,40.87
2019-01-26T04:28:51.577Z,34.10
2019-01-26T04:31:20.813Z,35.43
2019-01-26T04:33:50.239Z,36.83
2019-01-26T04:36:19.481Z,34.03
2019-01-26T04:38:48.834Z,23.47
2019-01-26T04:41:18.173Z,35.27
2019-01-26T04:43:47.516Z,29.20
2019-01-26T04:46:17.273Z,30.30
2019-01-26T04:48:46.602Z,39.93
2019-01-26T04:51:15.846Z,32.33
2019-01-26T04:53:45.253Z,31.40
2019-01-26T04:56:14.683Z,34.70
2019-01-26T04:58:44.025Z,33.67
2019-01-26T05:01:13.459Z,40.00
2019-01-26T05:03:42.810Z,39.27
2019-01-26T05:06:12.082Z,33.90
2019-01-26T05:08:41.394Z,31.57
2019-01-26T05:11:10.729Z,33.30
2019-01-26T05:13:39.996Z,33.03
2019-01-26T05:16:09.341Z,36.43
2019-01-26T05:18:38.822Z,31.90
2019-01-26T05:21:08.276Z,32.50
2019-01-26T05:23:37.519Z,34.20
2019-01-26T05:26:07.013Z,35.63
2019-01-26T05:28:36.401Z,37.50
2019-01-26T05:31:05.862Z,38.63
2019-01-26T05:33:35.241Z,32.97
2019-01-26T05:36:04.684Z,34.30
2019-01-26T05:38:34.024Z,35.80
2019-01-26T05:41:03.350Z,38.97
2019-01-26T05:43:32.813Z,39.23
2019-01-26T05:46:02.212Z,33.73
2019-01-26T05:48:31.609Z,36.87
2019-01-26T05:51:00.875Z,34.70
2019-01-26T05:53:30.323Z,32.33
2019-01-26T05:55:59.629Z,40.37
2019-01-26T05:58:29.045Z,37.37
2019-01-26T06:00:58.514Z,39.53
2019-01-26T06:03:27.890Z,41.30
2019-01-26T06:05:57.418Z,24.47
2019-01-26T06:08:26.755Z,38.27
2019-01-26T06:10:56.141Z,33.73
2019-01-26T06:13:25.476Z,43.13
2019-01-26T06:15:54.859Z,40.17
2019-01-26T06:18:24.313Z,48.57
2019-01-26T06:20:53.637Z,39.50
2019-01-26T06:23:23.030Z,37.33
2019-01-26T06:25:52.437Z,44.03
2019-01-26T06:28:21.734Z,45.43
2019-01-26T06:30:51.156Z,44.87
2019-01-26T06:33:20.572Z,38.30
2019-01-26T06:35:50.016Z,41.07
2019-01-26T06:38:21.412Z,33.00
2019-01-26T06:40:50.913Z,31.10
2019-01-26T06:43:20.341Z,45.93
2019-01-26T06:45:49.747Z,36.97
2019-01-26T06:48:19.015Z,34.93
2019-01-26T06:50:48.392Z,29.67
2019-01-26T06:53:17.835Z,39.03
2019-01-26T06:55:47.085Z,36.73
2019-01-26T06:58:16.480Z,46.17
2019-01-26T07:00:45.844Z,32.23
2019-01-26T07:03:15.302Z,44.93
2019-01-26T07:05:58.517Z,44.27
2019-01-26T07:08:28.095Z,40.60
2019-01-26T07:10:57.456Z,39.47
2019-01-26T07:13:26.935Z,36.73
2019-01-26T07:15:58.641Z,37.77
2019-01-26T07:18:29.143Z,35.70
2019-01-26T07:20:58.392Z,39.40
2019-01-26T07:23:27.843Z,34.90
2019-01-26T07:25:57.118Z,35.10
2019-01-26T07:28:26.510Z,35.90
2019-01-26T07:30:55.884Z,29.60
2019-01-26T07:33:25.197Z,33.10
2019-01-26T07:35:54.538Z,24.90
2019-01-26T07:38:23.824Z,22.90
2019-01-26T07:40:53.245Z,30.60
2019-01-26T07:43:22.554Z,27.60
2019-01-26T07:45:51.919Z,30.87
2019-01-26T07:48:21.328Z,31.00
2019-01-26T07:50:50.761Z,16.10
2019-01-26T07:53:20.132Z,29.87
2019-01-26T07:55:49.533Z,28.70
2019-01-26T07:58:19.093Z,28.83
2019-01-26T08:00:48.394Z,32.17
2019-01-26T08:03:17.805Z,20.87
2019-01-26T08:05:47.253Z,28.87
2019-01-26T08:08:16.697Z,23.70
2019-01-26T08:10:46.073Z,18.90
2019-01-26T08:13:15.480Z,23.77
2019-01-26T08:15:44.780Z,25.70
2019-01-26T08:18:14.203Z,21.03
2019-01-26T08:20:43.458Z,21.63
2019-01-26T08:23:12.956Z,19.83
2019-01-26T08:25:42.336Z,25.50
2019-01-26T08:28:11.646Z,23.60
2019-01-26T08:30:40.977Z,18.93
2019-01-26T08:33:10.298Z,23.47
2019-01-26T08:35:39.619Z,18.77
2019-01-26T08:38:08.893Z,20.40
2019-01-26T08:40:38.399Z,24.40
2019-01-26T08:43:07.953Z,23.87
2019-01-26T08:45:37.252Z,27.43
2019-01-26T08:48:07.170Z,28.30
2019-01-26T08:50:36.496Z,24.20
2019-01-26T08:53:06.003Z,22.97
2019-01-26T08:55:35.317Z,21.40
2019-01-26T08:58:05.073Z,21.73
2019-01-26T09:00:34.503Z,24.00
2019-01-26T09:03:22.798Z,19.70
2019-01-26T09:06:11.037Z,24.60
2019-01-26T09:08:40.559Z,25.17
2019-01-26T09:11:10.008Z,24.30
2019-01-26T09:13:39.343Z,21.53
2019-01-26T09:16:08.760Z,26.00
2019-01-26T09:18:38.876Z,28.20
2019-01-26T09:21:08.557Z,23.23
2019-01-26T09:23:37.970Z,23.03
2019-01-26T09:26:07.279Z,25.50
2019-01-26T09:28:36.739Z,20.70
2019-01-26T09:31:06.328Z,20.37
2019-01-26T09:33:35.703Z,19.37
2019-01-26T09:36:06.158Z,26.00
2019-01-26T09:38:35.524Z,24.03
2019-01-26T09:41:05.029Z,23.13
2019-01-26T09:43:34.367Z,22.53
2019-01-26T09:46:03.780Z,21.10
2019-01-26T09:48:33.107Z,12.37
2019-01-26T09:51:02.621Z,17.43
2019-01-26T09:53:31.985Z,19.00
2019-01-26T09:56:01.295Z,21.27
2019-01-26T09:58:30.689Z,17.07
2019-01-26T10:01:00.032Z,19.93
2019-01-26T10:03:29.379Z,14.57
2019-01-26T10:05:58.788Z,15.23
2019-01-26T10:08:28.367Z,20.67
2019-01-26T10:10:57.765Z,20.00
2019-01-26T10:13:27.210Z,20.83
2019-01-26T10:15:56.668Z,17.07
2019-01-26T10:18:26.115Z,18.10
2019-01-26T10:20:55.715Z,20.80
2019-01-26T10:23:25.085Z,14.87
2019-01-26T10:25:54.449Z,16.50
2019-01-26T10:28:24.083Z,22.37
2019-01-26T10:30:56.771Z,19.47
2019-01-26T10:33:26.232Z,12.50
2019-01-26T10:36:14.635Z,21.60
2019-01-26T10:38:49.008Z,18.77
2019-01-26T10:41:28.008Z,24.23
2019-01-26T10:43:57.485Z,23.60
2019-01-26T10:46:26.890Z,20.60
2019-01-26T10:49:00.643Z,21.67
2019-01-26T10:51:27.390Z,18.10
2019-01-26T10:53:56.778Z,21.97
2019-01-26T10:56:26.237Z,20.83
2019-01-26T10:58:55.748Z,22.90
2019-01-26T11:01:25.199Z,19.80
2019-01-26T11:03:54.643Z,21.40
2019-01-26T11:06:24.036Z,21.93
2019-01-26T11:08:53.437Z,18.27
2019-01-26T11:11:22.798Z,19.40
2019-01-26T11:13:52.176Z,19.73
2019-01-26T11:16:21.520Z,19.07
2019-01-26T11:18:51.020Z,15.70
2019-01-26T11:21:20.576Z,18.80
2019-01-26T11:23:50.025Z,16.27
2019-01-26T11:26:19.434Z,19.07
2019-01-26T11:28:48.831Z,15.80
2019-01-26T11:31:18.602Z,19.20
2019-01-26T11:33:47.968Z,21.80
2019-01-26T11:36:17.418Z,16.37
2019-01-26T11:38:46.798Z,18.50
2019-01-26T11:41:16.324Z,12.80
2019-01-26T11:43:46.562Z,17.50
2019-01-26T11:46:35.017Z,17.90
2019-01-26T11:49:04.465Z,12.53
2019-01-26T11:51:52.907Z,19.17
2019-01-26T11:54:22.332Z,15.50
2019-01-26T11:56:57.304Z,13.43
2019-01-26T11:59:26.667Z,12.10
2019-01-26T12:02:22.303Z,14.77
2019-01-26T12:05:08.541Z,14.33
2019-01-26T12:07:38.224Z,17.33
2019-01-26T12:10:10.372Z,13.50
2019-01-26T12:12:39.782Z,16.30
2019-01-26T12:15:12.130Z,15.10
2019-01-26T12:17:41.431Z,15.47
2019-01-26T12:20:13.199Z,16.53
2019-01-26T12:22:42.618Z,15.97
2019-01-26T12:25:12.435Z,17.83
2019-01-26T12:27:41.910Z,18.23
2019-01-26T12:30:12.839Z,10.37
2019-01-26T12:32:42.418Z,15.43
2019-01-26T12:35:13.133Z,18.47
2019-01-26T12:37:42.558Z,17.40
2019-01-26T12:40:12.427Z,16.60
2019-01-26T12:42:41.899Z,17.83
2019-01-26T12:45:14.722Z,21.40
2019-01-26T12:47:44.099Z,20.37
2019-01-26T12:50:14.004Z,20.27
2019-01-26T12:52:43.341Z,18.70
2019-01-26T12:55:14.054Z,19.77
2019-01-26T12:57:43.528Z,16.90
2019-01-26T13:00:16.113Z,21.93
2019-01-26T13:02:45.532Z,25.07
2019-01-26T13:05:14.924Z,14.50
2019-01-26T13:07:44.322Z,18.30
2019-01-26T13:10:17.851Z,19.80
2019-01-26T13:12:47.495Z,20.97
2019-01-26T13:15:16.941Z,19.77
2019-01-26T13:17:46.542Z,21.47
2019-01-26T13:20:16.649Z,22.47
2019-01-26T13:22:46.167Z,26.47
2019-01-26T13:25:16.708Z,24.07
2019-01-26T13:27:46.221Z,24.00
2019-01-26T13:30:19.915Z,25.93
2019-01-26T13:32:49.450Z,23.70
2019-01-26T13:35:19.251Z,24.50
2019-01-26T13:37:48.686Z,25.67
2019-01-26T13:40:19.298Z,27.77
2019-01-26T13:42:48.594Z,24.90
2019-01-26T13:45:18.104Z,24.70
2019-01-26T13:47:47.608Z,21.40
2019-01-26T13:50:17.302Z,25.70
2019-01-26T13:52:46.773Z,27.17
2019-01-26T13:55:17.643Z,23.00
2019-01-26T13:57:47.198Z,29.00
2019-01-26T14:00:20.187Z,22.70
2019-01-26T14:02:49.922Z,17.90
2019-01-26T14:05:19.474Z,22.30
2019-01-26T14:07:49.095Z,29.10
2019-01-26T14:10:18.744Z,28.87
2019-01-26T14:12:48.363Z,18.50
2019-01-26T14:15:18.157Z,27.30
2019-01-26T14:17:47.921Z,27.80
2019-01-26T14:20:19.290Z,28.70
2019-01-26T14:22:48.724Z,22.47
2019-01-26T14:25:18.547Z,22.83
2019-01-26T14:27:47.904Z,11.40
2019-01-26T14:30:20.225Z,24.93
2019-01-26T14:32:52.664Z,24.90
2019-01-26T14:35:21.181Z,24.87
2019-01-26T14:37:50.645Z,24.03
2019-01-26T14:40:20.359Z,22.53
2019-01-26T14:42:54.320Z,28.10
2019-01-26T14:45:21.419Z,23.70
2019-01-26T14:47:51.112Z,25.20
2019-01-26T14:50:20.979Z,24.13
2019-01-26T14:52:50.709Z,20.30
2019-01-26T14:55:22.051Z,23.90
2019-01-26T14:57:51.768Z,22.83
2019-01-26T15:00:26.557Z,23.47
2019-01-26T15:02:56.155Z,22.73
2019-01-26T15:05:25.846Z,22.20
2019-01-26T15:07:57.113Z,24.30
2019-01-26T15:10:26.981Z,20.97
2019-01-26T15:12:56.670Z,21.20
2019-01-26T15:15:26.713Z,20.63
2019-01-26T15:17:56.300Z,19.30
2019-01-26T15:20:28.626Z,23.90
2019-01-26T15:22:58.287Z,18.60
2019-01-26T15:25:27.917Z,20.37
2019-01-26T15:27:57.474Z,21.00
2019-01-26T15:30:29.900Z,21.40
2019-01-26T15:32:59.647Z,18.07
2019-01-26T15:35:29.409Z,17.33
2019-01-26T15:37:59.114Z,17.20
2019-01-26T15:40:28.602Z,19.53
2019-01-26T15:42:58.420Z,18.13
2019-01-26T15:45:31.094Z,17.97
2019-01-26T15:48:00.706Z,20.73
2019-01-26T15:50:30.346Z,19.70
2019-01-26T15:52:59.912Z,19.77
2019-01-26T15:55:29.730Z,19.07
2019-01-26T15:57:59.436Z,15.20
2019-01-26T16:00:31.078Z,15.20
2019-01-26T16:03:00.723Z,16.27
2019-01-26T16:05:30.367Z,18.17
2019-01-26T16:08:00.214Z,17.80
2019-01-26T16:10:29.936Z,15.57
2019-01-26T16:12:59.449Z,16.83
2019-01-26T16:15:30.888Z,15.83
2019-01-26T16:18:00.855Z,18.80
2019-01-26T16:20:30.743Z,18.23
2019-01-26T16:23:00.431Z,15.67
2019-01-26T16:25:30.511Z,18.20
2019-01-26T16:28:00.110Z,17.20
2019-01-26T16:30:31.634Z,16.97
2019-01-26T16:33:01.302Z,15.87
2019-01-26T16:35:32.272Z,18.70
2019-01-26T16:38:01.860Z,20.00
2019-01-26T16:40:33.332Z,18.27
2019-01-26T16:43:02.808Z,18.50
2019-01-26T16:45:34.480Z,18.57
2019-01-26T16:48:06.666Z,18.67
2019-01-26T16:50:36.329Z,20.37
2019-01-26T16:53:06.313Z,16.43
2019-01-26T16:55:35.933Z,17.10
2019-01-26T16:58:05.950Z,17.53
2019-01-26T17:00:46.460Z,17.40
2019-01-26T17:03:16.096Z,16.90
2019-01-26T17:05:46.004Z,19.00
2019-01-26T17:08:15.742Z,17.57
2019-01-26T17:10:45.336Z,19.57
2019-01-26T17:13:15.133Z,21.60
2019-01-26T17:15:44.713Z,20.40
2019-01-26T17:18:14.629Z,16.90
2019-01-26T17:20:45.912Z,23.20
2019-01-26T17:23:15.723Z,19.50
2019-01-26T17:25:45.450Z,21.37
2019-01-26T17:28:15.269Z,23.00
2019-01-26T17:30:45.080Z,21.93
2019-01-26T17:33:14.833Z,21.40
2019-01-26T17:35:44.631Z,23.87
2019-01-26T17:38:14.473Z,24.17
2019-01-26T17:40:44.151Z,21.97
2019-01-26T17:43:13.975Z,25.23
2019-01-26T17:45:44.590Z,25.90
2019-01-26T17:48:14.358Z,24.47
2019-01-26T17:50:44.090Z,25.20
2019-01-26T17:53:13.700Z,27.33
2019-01-26T17:55:43.451Z,26.53
2019-01-26T17:58:13.234Z,25.00
2019-01-26T18:01:04.884Z,26.73
2019-01-26T18:03:34.613Z,26.97
2019-01-26T18:06:04.455Z,29.60
2019-01-26T18:08:35.348Z,29.43
2019-01-26T18:11:05.149Z,30.60
2019-01-26T18:13:34.866Z,27.07
2019-01-26T18:16:04.838Z,28.40
2019-01-26T18:18:34.579Z,25.67
2019-01-26T18:21:04.473Z,27.40
2019-01-26T18:23:34.981Z,23.23
2019-01-26T18:26:05.420Z,20.90
2019-01-26T18:28:35.147Z,24.57
2019-01-26T18:31:05.800Z,25.77
2019-01-26T18:33:35.522Z,28.37
2019-01-26T18:36:05.634Z,24.10
2019-01-26T18:38:35.302Z,24.80
2019-01-26T18:41:05.104Z,26.40
2019-01-26T18:43:34.854Z,26.13
2019-01-26T18:46:04.789Z,28.47
2019-01-26T18:48:34.909Z,25.90
2019-01-26T18:51:04.681Z,30.40
2019-01-26T18:53:34.340Z,26.80
2019-01-26T18:56:04.015Z,29.50
2019-01-26T18:58:33.962Z,25.47
2019-01-26T19:01:04.183Z,29.77
2019-01-26T19:04:09.154Z,29.20
2019-01-26T19:06:39.016Z,26.43
2019-01-26T19:09:11.682Z,29.40
2019-01-26T19:11:41.312Z,27.40
2019-01-26T19:14:11.073Z,27.87
2019-01-26T19:16:41.364Z,31.03
2019-01-26T19:19:11.142Z,27.40
2019-01-26T19:21:40.923Z,31.77
2019-01-26T19:24:10.804Z,28.67
2019-01-26T19:26:40.590Z,26.47
2019-01-26T19:29:10.561Z,31.00
2019-01-26T19:31:40.364Z,27.50
2019-01-26T19:34:10.102Z,28.33
2019-01-26T19:36:39.930Z,28.33
2019-01-26T19:39:09.784Z,26.97
2019-01-26T19:41:39.454Z,25.57
2019-01-26T19:44:09.442Z,27.07
2019-01-26T19:46:39.036Z,25.03
2019-01-26T19:49:08.882Z,25.33
2019-01-26T19:51:38.548Z,25.60
2019-01-26T19:54:08.611Z,24.37
2019-01-26T19:56:38.383Z,22.43
2019-01-26T19:59:08.210Z,21.53
2019-01-26T20:01:37.991Z,22.43
2019-01-26T20:04:08.123Z,19.00
2019-01-26T20:06:38.115Z,22.07
2019-01-26T20:09:09.956Z,21.70
2019-01-26T20:11:40.690Z,19.57
2019-01-26T20:14:13.490Z,19.77
2019-01-26T20:16:43.196Z,18.00
2019-01-26T20:19:13.033Z,16.97
2019-01-26T20:21:42.895Z,16.50
2019-01-26T20:24:12.857Z,17.07
2019-01-26T20:26:42.656Z,18.20
2019-01-26T20:29:12.379Z,12.27
2019-01-26T20:31:42.204Z,17.07
2019-01-26T20:34:12.073Z,15.20
2019-01-26T20:36:41.781Z,15.40
2019-01-26T20:39:11.602Z,17.07
2019-01-26T20:41:41.416Z,18.20
2019-01-26T20:44:11.191Z,18.27
2019-01-26T20:46:41.056Z,18.03
2019-01-26T20:49:10.789Z,23.07
2019-01-26T20:51:40.701Z,19.80
2019-01-26T20:54:10.536Z,18.63
2019-01-26T20:56:40.289Z,20.30
2019-01-26T20:59:10.242Z,18.73
2019-01-26T21:01:40.226Z,19.87
2019-01-26T21:04:09.934Z,17.40
2019-01-26T21:06:39.596Z,17.27
2019-01-26T21:09:09.981Z,15.00
2019-01-26T21:11:39.836Z,17.20
2019-01-26T21:14:09.810Z,15.93
2019-01-26T21:16:39.660Z,18.73
2019-01-26T21:19:09.275Z,19.33
2019-01-26T21:21:38.926Z,15.97
2019-01-26T21:24:08.949Z,20.50
2019-01-26T21:26:38.651Z,21.10
2019-01-26T21:29:08.477Z,18.63
2019-01-26T21:31:38.175Z,20.10
2019-01-26T21:34:07.835Z,19.17
2019-01-26T21:36:37.502Z,19.83
2019-01-26T21:39:09.120Z,18.90
2019-01-26T21:41:38.790Z,19.33
2019-01-26T21:44:08.320Z,18.83
2019-01-26T21:46:37.877Z,22.10
2019-01-26T21:49:07.413Z,21.33
2019-01-26T21:51:39.107Z,19.73
2019-01-26T21:54:08.353Z,20.60
2019-01-26T21:56:37.834Z,19.17
2019-01-26T21:59:07.311Z,18.10
2019-01-26T22:01:36.981Z,21.00
2019-01-26T22:04:06.373Z,18.37
2019-01-26T22:06:36.047Z,18.07
2019-01-26T22:09:09.174Z,17.83
2019-01-26T22:11:38.672Z,16.63
2019-01-26T22:14:08.137Z,15.27
2019-01-26T22:16:37.678Z,15.27
2019-01-26T22:19:07.182Z,15.80
2019-01-26T22:21:36.700Z,14.80
2019-01-26T22:24:06.132Z,13.50
2019-01-26T22:26:35.816Z,14.00
2019-01-26T22:29:05.325Z,13.50
2019-01-26T22:31:34.716Z,15.37
2019-01-26T22:34:04.097Z,14.40
2019-01-26T22:36:33.901Z,13.87
2019-01-26T22:39:03.953Z,12.20
2019-01-26T22:41:33.372Z,12.10
2019-01-26T22:44:02.617Z,12.80
2019-01-26T22:46:32.016Z,12.53
2019-01-26T22:49:01.316Z,11.13
2019-01-26T22:51:30.696Z,12.23
2019-01-26T22:54:00.031Z,13.27
2019-01-26T22:56:29.478Z,12.97
2019-01-26T22:58:58.958Z,12.73
2019-01-26T23:01:31.139Z,11.60
2019-01-26T23:04:40.396Z,12.40
2019-01-26T23:07:37.734Z,11.27
2019-01-26T23:10:48.205Z,11.47
2019-01-26T23:13:30.605Z,12.47
2019-01-26T23:16:51.577Z,9.57
2019-01-26T23:19:59.716Z,10.10
2019-01-26T23:23:03.017Z,11.17
2019-01-26T23:26:22.103Z,10.50
2019-01-26T23:29:27.435Z,8.63
2019-01-26T23:31:56.834Z,8.70
2019-01-26T23:34:26.209Z,9.67
2019-01-26T23:36:55.624Z,9.97
2019-01-26T23:39:25.117Z,7.27
2019-01-26T23:41:54.557Z,7.80
2019-01-26T23:44:24.018Z,8.17
2019-01-26T23:46:53.366Z,8.80
2019-01-26T23:49:22.745Z,7.83
2019-01-26T23:51:52.037Z,8.50
2019-01-26T23:54:21.473Z,7.13
2019-01-26T23:56:50.797Z,6.80
2019-01-26T23:59:20.435Z,8.47
